sensor_id;sensor_type;location;lat;lon;timestamp;temperature;humidity
15133;DHT22;7667;51.232;17.110;2022-12-07T00:01:43;1.40;99.90
15133;DHT22;7667;51.232;17.110;2022-12-07T00:04:14;1.40;99.90
15133;DHT22;7667;51.232;17.110;2022-12-07T00:06:46;1.40;99.90
15133;DHT22;7667;51.232;17.110;2022-12-07T00:09:16;1.40;99.90
15133;DHT22;7667;51.232;17.110;2022-12-07T00:11:47;1.40;99.90
15133;DHT22;7667;51.232;17.110;2022-12-07T00:14:17;1.40;99.90
15133;DHT22;7667;51.232;17.110;2022-12-07T00:16:45;1.40;99.90
15133;DHT22;7667;51.232;17.110;2022-12-07T00:19:13;1.40;99.90
15133;DHT22;7667;51.232;17.110;2022-12-07T00:21:41;1.40;99.90
15133;DHT22;7667;51.232;17.110;2022-12-07T00:24:10;1.40;99.90
15133;DHT22;7667;51.232;17.110;2022-12-07T00:26:39;1.40;99.90
15133;DHT22;7667;51.232;17.110;2022-12-07T00:29:19;1.40;99.90
15133;DHT22;7667;51.232;17.110;2022-12-07T00:31:48;1.40;99.90
15133;DHT22;7667;51.232;17.110;2022-12-07T00:34:18;1.40;99.90
15133;DHT22;7667;51.232;17.110;2022-12-07T00:36:47;1.40;99.90
15133;DHT22;7667;51.232;17.110;2022-12-07T00:39:16;1.30;99.90
15133;DHT22;7667;51.232;17.110;2022-12-07T00:41:44;1.40;99.90
15133;DHT22;7667;51.232;17.110;2022-12-07T00:44:11;1.40;99.90
15133;DHT22;7667;51.232;17.110;2022-12-07T00:46:39;1.40;99.90
15133;DHT22;7667;51.232;17.110;2022-12-07T00:49:06;1.40;99.90
15133;DHT22;7667;51.232;17.110;2022-12-07T00:51:34;1.30;99.90
15133;DHT22;7667;51.232;17.110;2022-12-07T00:54:01;1.40;99.90
15133;DHT22;7667;51.232;17.110;2022-12-07T00:56:29;1.40;99.90
15133;DHT22;7667;51.232;17.110;2022-12-07T00:59:02;1.40;99.90
15133;DHT22;7667;51.232;17.110;2022-12-07T01:01:35;1.40;99.90
15133;DHT22;7667;51.232;17.110;2022-12-07T01:04:04;1.40;99.90
15133;DHT22;7667;51.232;17.110;2022-12-07T01:06:32;1.40;99.90
15133;DHT22;7667;51.232;17.110;2022-12-07T01:09:00;1.40;99.90
15133;DHT22;7667;51.232;17.110;2022-12-07T01:11:29;1.40;99.90
15133;DHT22;7667;51.232;17.110;2022-12-07T01:13:58;1.40;99.90
15133;DHT22;7667;51.232;17.110;2022-12-07T01:16:29;1.40;99.90
15133;DHT22;7667;51.232;17.110;2022-12-07T01:18:58;1.40;99.90
15133;DHT22;7667;51.232;17.110;2022-12-07T01:21:29;1.40;99.90
15133;DHT22;7667;51.232;17.110;2022-12-07T01:24:06;1.40;99.90
15133;DHT22;7667;51.232;17.110;2022-12-07T01:26:35;1.40;99.90
15133;DHT22;7667;51.232;17.110;2022-12-07T01:29:03;1.40;99.90
15133;DHT22;7667;51.232;17.110;2022-12-07T01:31:31;1.40;99.90
15133;DHT22;7667;51.232;17.110;2022-12-07T01:33:59;1.40;99.90
15133;DHT22;7667;51.232;17.110;2022-12-07T01:36:29;1.40;99.90
15133;DHT22;7667;51.232;17.110;2022-12-07T01:39:03;1.40;99.90
15133;DHT22;7667;51.232;17.110;2022-12-07T01:41:34;1.40;99.90
15133;DHT22;7667;51.232;17.110;2022-12-07T01:44:21;1.40;99.90
15133;DHT22;7667;51.232;17.110;2022-12-07T01:46:52;1.40;99.90
15133;DHT22;7667;51.232;17.110;2022-12-07T01:49:40;1.40;99.90
15133;DHT22;7667;51.232;17.110;2022-12-07T01:52:30;1.40;99.90
15133;DHT22;7667;51.232;17.110;2022-12-07T01:55:06;1.40;99.90
15133;DHT22;7667;51.232;17.110;2022-12-07T01:57:42;1.40;99.90
15133;DHT22;7667;51.232;17.110;2022-12-07T02:00:12;1.40;99.90
15133;DHT22;7667;51.232;17.110;2022-12-07T02:02:55;1.40;99.90
15133;DHT22;7667;51.232;17.110;2022-12-07T02:05:27;1.40;99.90
15133;DHT22;7667;51.232;17.110;2022-12-07T02:07:56;1.40;99.90
15133;DHT22;7667;51.232;17.110;2022-12-07T02:10:30;1.40;99.90
15133;DHT22;7667;51.232;17.110;2022-12-07T02:24:59;1.30;99.90
15133;DHT22;7667;51.232;17.110;2022-12-07T02:27:57;1.20;99.90
15133;DHT22;7667;51.232;17.110;2022-12-07T02:30:34;1.30;99.90
15133;DHT22;7667;51.232;17.110;2022-12-07T02:33:11;1.20;99.90
15133;DHT22;7667;51.232;17.110;2022-12-07T02:36:05;1.20;99.90
15133;DHT22;7667;51.232;17.110;2022-12-07T02:38:43;1.20;99.90
15133;DHT22;7667;51.232;17.110;2022-12-07T02:41:26;1.20;99.90
15133;DHT22;7667;51.232;17.110;2022-12-07T02:43:58;1.20;99.90
15133;DHT22;7667;51.232;17.110;2022-12-07T02:46:31;1.20;99.90
15133;DHT22;7667;51.232;17.110;2022-12-07T02:49:01;1.20;99.90
15133;DHT22;7667;51.232;17.110;2022-12-07T02:51:31;1.10;99.90
15133;DHT22;7667;51.232;17.110;2022-12-07T02:54:00;1.20;99.90
15133;DHT22;7667;51.232;17.110;2022-12-07T02:56:39;1.20;99.90
15133;DHT22;7667;51.232;17.110;2022-12-07T03:11:43;1.10;99.90
15133;DHT22;7667;51.232;17.110;2022-12-07T03:14:19;1.10;99.90
15133;DHT22;7667;51.232;17.110;2022-12-07T03:17:00;1.10;99.90
15133;DHT22;7667;51.232;17.110;2022-12-07T03:19:42;1.10;99.90
15133;DHT22;7667;51.232;17.110;2022-12-07T03:22:12;1.10;99.90
15133;DHT22;7667;51.232;17.110;2022-12-07T03:24:45;1.00;99.90
15133;DHT22;7667;51.232;17.110;2022-12-07T03:27:23;1.00;99.90
15133;DHT22;7667;51.232;17.110;2022-12-07T03:29:54;1.00;99.90
15133;DHT22;7667;51.232;17.110;2022-12-07T03:35:37;0.90;99.90
15133;DHT22;7667;51.232;17.110;2022-12-07T03:38:43;0.90;99.90
15133;DHT22;7667;51.232;17.110;2022-12-07T03:41:27;0.90;99.90
15133;DHT22;7667;51.232;17.110;2022-12-07T03:43:57;0.90;99.90
15133;DHT22;7667;51.232;17.110;2022-12-07T03:49:06;0.80;99.90
15133;DHT22;7667;51.232;17.110;2022-12-07T03:51:56;0.80;99.90
15133;DHT22;7667;51.232;17.110;2022-12-07T03:54:27;0.80;99.90
15133;DHT22;7667;51.232;17.110;2022-12-07T03:57:01;0.80;99.90
15133;DHT22;7667;51.232;17.110;2022-12-07T03:59:30;0.80;99.90
15133;DHT22;7667;51.232;17.110;2022-12-07T04:02:03;0.80;99.90
15133;DHT22;7667;51.232;17.110;2022-12-07T04:04:32;0.80;99.90
15133;DHT22;7667;51.232;17.110;2022-12-07T04:07:00;0.80;99.90
15133;DHT22;7667;51.232;17.110;2022-12-07T04:09:27;0.80;99.90
15133;DHT22;7667;51.232;17.110;2022-12-07T04:11:55;0.80;99.90
15133;DHT22;7667;51.232;17.110;2022-12-07T04:14:22;0.80;99.90
15133;DHT22;7667;51.232;17.110;2022-12-07T04:16:56;0.70;99.90
15133;DHT22;7667;51.232;17.110;2022-12-07T04:19:30;0.70;99.90
15133;DHT22;7667;51.232;17.110;2022-12-07T04:22:02;0.60;99.90
15133;DHT22;7667;51.232;17.110;2022-12-07T04:24:30;0.60;99.90
15133;DHT22;7667;51.232;17.110;2022-12-07T04:26:58;0.60;99.90
15133;DHT22;7667;51.232;17.110;2022-12-07T04:29:26;0.60;99.90
15133;DHT22;7667;51.232;17.110;2022-12-07T04:31:54;0.60;99.90
15133;DHT22;7667;51.232;17.110;2022-12-07T04:34:22;0.50;99.90
15133;DHT22;7667;51.232;17.110;2022-12-07T04:36:49;0.50;99.90
15133;DHT22;7667;51.232;17.110;2022-12-07T04:39:26;0.50;99.90
15133;DHT22;7667;51.232;17.110;2022-12-07T04:41:55;0.60;99.90
15133;DHT22;7667;51.232;17.110;2022-12-07T04:44:24;0.60;99.90
15133;DHT22;7667;51.232;17.110;2022-12-07T04:46:53;0.60;99.90
15133;DHT22;7667;51.232;17.110;2022-12-07T04:49:21;0.60;99.90
15133;DHT22;7667;51.232;17.110;2022-12-07T04:51:49;0.60;99.90
15133;DHT22;7667;51.232;17.110;2022-12-07T04:54:17;0.60;99.90
15133;DHT22;7667;51.232;17.110;2022-12-07T04:56:45;0.70;99.90
15133;DHT22;7667;51.232;17.110;2022-12-07T04:59:14;0.70;99.90
15133;DHT22;7667;51.232;17.110;2022-12-07T05:01:43;0.60;99.90
15133;DHT22;7667;51.232;17.110;2022-12-07T05:04:11;0.60;99.90
15133;DHT22;7667;51.232;17.110;2022-12-07T05:06:39;0.60;99.90
15133;DHT22;7667;51.232;17.110;2022-12-07T05:09:06;0.60;99.90
15133;DHT22;7667;51.232;17.110;2022-12-07T05:11:34;0.60;99.90
15133;DHT22;7667;51.232;17.110;2022-12-07T05:16:37;0.60;99.90
15133;DHT22;7667;51.232;17.110;2022-12-07T05:19:05;0.70;99.90
15133;DHT22;7667;51.232;17.110;2022-12-07T05:21:33;0.70;99.90
15133;DHT22;7667;51.232;17.110;2022-12-07T05:24:01;0.70;99.90
15133;DHT22;7667;51.232;17.110;2022-12-07T05:26:30;0.80;99.90
15133;DHT22;7667;51.232;17.110;2022-12-07T05:28:58;0.70;99.90
15133;DHT22;7667;51.232;17.110;2022-12-07T05:31:26;0.70;99.90
15133;DHT22;7667;51.232;17.110;2022-12-07T05:33:54;0.70;99.90
15133;DHT22;7667;51.232;17.110;2022-12-07T05:36:22;0.80;99.90
15133;DHT22;7667;51.232;17.110;2022-12-07T05:38:50;0.90;99.90
15133;DHT22;7667;51.232;17.110;2022-12-07T05:41:18;0.90;99.90
15133;DHT22;7667;51.232;17.110;2022-12-07T05:44:05;0.90;99.90
15133;DHT22;7667;51.232;17.110;2022-12-07T05:46:33;0.90;99.90
15133;DHT22;7667;51.232;17.110;2022-12-07T05:49:01;0.80;99.90
15133;DHT22;7667;51.232;17.110;2022-12-07T05:51:29;0.80;99.90
15133;DHT22;7667;51.232;17.110;2022-12-07T05:53:57;0.80;99.90
15133;DHT22;7667;51.232;17.110;2022-12-07T05:56:24;0.90;99.90
15133;DHT22;7667;51.232;17.110;2022-12-07T05:58:54;0.90;99.90
15133;DHT22;7667;51.232;17.110;2022-12-07T06:01:40;1.00;99.90
15133;DHT22;7667;51.232;17.110;2022-12-07T06:04:08;1.00;99.90
15133;DHT22;7667;51.232;17.110;2022-12-07T06:06:35;1.00;99.90
15133;DHT22;7667;51.232;17.110;2022-12-07T06:09:04;1.00;99.90
15133;DHT22;7667;51.232;17.110;2022-12-07T06:11:31;1.00;99.90
15133;DHT22;7667;51.232;17.110;2022-12-07T06:14:18;1.10;99.90
15133;DHT22;7667;51.232;17.110;2022-12-07T06:16:45;1.10;99.90
15133;DHT22;7667;51.232;17.110;2022-12-07T06:19:13;1.10;99.90
15133;DHT22;7667;51.232;17.110;2022-12-07T06:21:40;1.10;99.90
15133;DHT22;7667;51.232;17.110;2022-12-07T06:24:11;1.10;99.90
15133;DHT22;7667;51.232;17.110;2022-12-07T06:26:39;1.10;99.90
15133;DHT22;7667;51.232;17.110;2022-12-07T06:29:07;1.10;99.90
15133;DHT22;7667;51.232;17.110;2022-12-07T06:31:35;1.10;99.90
15133;DHT22;7667;51.232;17.110;2022-12-07T06:34:12;1.20;99.90
15133;DHT22;7667;51.232;17.110;2022-12-07T06:36:44;1.20;99.90
15133;DHT22;7667;51.232;17.110;2022-12-07T06:39:12;1.10;99.90
15133;DHT22;7667;51.232;17.110;2022-12-07T06:41:40;1.20;99.90
15133;DHT22;7667;51.232;17.110;2022-12-07T06:44:07;1.10;99.90
15133;DHT22;7667;51.232;17.110;2022-12-07T06:46:35;1.10;99.90
15133;DHT22;7667;51.232;17.110;2022-12-07T06:49:04;1.10;99.90
15133;DHT22;7667;51.232;17.110;2022-12-07T06:51:32;1.10;99.90
15133;DHT22;7667;51.232;17.110;2022-12-07T06:54:05;1.10;99.90
15133;DHT22;7667;51.232;17.110;2022-12-07T06:56:32;1.10;99.90
15133;DHT22;7667;51.232;17.110;2022-12-07T06:59:00;1.10;99.90
15133;DHT22;7667;51.232;17.110;2022-12-07T07:01:27;1.20;99.90
15133;DHT22;7667;51.232;17.110;2022-12-07T07:03:55;1.10;99.90
15133;DHT22;7667;51.232;17.110;2022-12-07T07:06:23;1.20;99.90
15133;DHT22;7667;51.232;17.110;2022-12-07T07:08:50;1.20;99.90
15133;DHT22;7667;51.232;17.110;2022-12-07T07:11:18;1.10;99.90
15133;DHT22;7667;51.232;17.110;2022-12-07T07:13:46;1.10;99.90
15133;DHT22;7667;51.232;17.110;2022-12-07T07:16:14;1.10;99.90
15133;DHT22;7667;51.232;17.110;2022-12-07T07:18:41;1.10;99.90
15133;DHT22;7667;51.232;17.110;2022-12-07T07:21:09;1.10;99.90
15133;DHT22;7667;51.232;17.110;2022-12-07T07:23:36;1.20;99.90
15133;DHT22;7667;51.232;17.110;2022-12-07T07:26:04;1.20;99.90
15133;DHT22;7667;51.232;17.110;2022-12-07T07:28:32;1.20;99.90
15133;DHT22;7667;51.232;17.110;2022-12-07T07:30:59;1.20;99.90
15133;DHT22;7667;51.232;17.110;2022-12-07T07:33:27;1.10;99.90
15133;DHT22;7667;51.232;17.110;2022-12-07T07:35:54;1.20;99.90
15133;DHT22;7667;51.232;17.110;2022-12-07T07:38:22;1.20;99.90
15133;DHT22;7667;51.232;17.110;2022-12-07T07:40:49;1.30;99.90
15133;DHT22;7667;51.232;17.110;2022-12-07T07:43:17;1.30;99.90
15133;DHT22;7667;51.232;17.110;2022-12-07T07:45:44;1.40;99.90
15133;DHT22;7667;51.232;17.110;2022-12-07T07:48:12;1.40;99.90
15133;DHT22;7667;51.232;17.110;2022-12-07T07:50:39;1.30;99.90
15133;DHT22;7667;51.232;17.110;2022-12-07T07:53:07;1.40;99.90
15133;DHT22;7667;51.232;17.110;2022-12-07T07:55:35;1.40;99.90
15133;DHT22;7667;51.232;17.110;2022-12-07T07:58:02;1.30;99.90
15133;DHT22;7667;51.232;17.110;2022-12-07T08:00:30;1.40;99.90
15133;DHT22;7667;51.232;17.110;2022-12-07T08:02:57;1.40;99.90
15133;DHT22;7667;51.232;17.110;2022-12-07T08:05:26;1.30;99.90
15133;DHT22;7667;51.232;17.110;2022-12-07T08:07:53;1.30;99.90
15133;DHT22;7667;51.232;17.110;2022-12-07T08:10:21;1.30;99.90
15133;DHT22;7667;51.232;17.110;2022-12-07T08:12:48;1.30;99.90
15133;DHT22;7667;51.232;17.110;2022-12-07T08:15:38;1.30;99.90
15133;DHT22;7667;51.232;17.110;2022-12-07T08:18:08;1.30;99.90
15133;DHT22;7667;51.232;17.110;2022-12-07T08:20:36;1.30;99.90
15133;DHT22;7667;51.232;17.110;2022-12-07T08:23:05;1.40;99.90
15133;DHT22;7667;51.232;17.110;2022-12-07T08:25:33;1.50;99.90
15133;DHT22;7667;51.232;17.110;2022-12-07T08:28:01;1.40;99.90
15133;DHT22;7667;51.232;17.110;2022-12-07T08:30:29;1.40;99.90
15133;DHT22;7667;51.232;17.110;2022-12-07T08:32:57;1.50;99.90
15133;DHT22;7667;51.232;17.110;2022-12-07T08:35:24;1.50;99.90
15133;DHT22;7667;51.232;17.110;2022-12-07T08:37:53;1.50;99.90
15133;DHT22;7667;51.232;17.110;2022-12-07T08:40:20;1.60;99.90
15133;DHT22;7667;51.232;17.110;2022-12-07T08:42:51;1.60;99.90
15133;DHT22;7667;51.232;17.110;2022-12-07T08:45:20;1.60;99.90
15133;DHT22;7667;51.232;17.110;2022-12-07T08:48:03;1.60;99.90
15133;DHT22;7667;51.232;17.110;2022-12-07T08:50:34;1.60;99.90
15133;DHT22;7667;51.232;17.110;2022-12-07T08:53:04;1.50;99.90
15133;DHT22;7667;51.232;17.110;2022-12-07T08:55:33;1.60;99.90
15133;DHT22;7667;51.232;17.110;2022-12-07T08:58:02;1.70;99.90
15133;DHT22;7667;51.232;17.110;2022-12-07T09:00:30;1.80;99.90
15133;DHT22;7667;51.232;17.110;2022-12-07T09:02:58;1.90;99.90
15133;DHT22;7667;51.232;17.110;2022-12-07T09:05:25;2.00;99.90
15133;DHT22;7667;51.232;17.110;2022-12-07T09:07:57;2.10;99.90
15133;DHT22;7667;51.232;17.110;2022-12-07T09:10:26;2.20;99.90
15133;DHT22;7667;51.232;17.110;2022-12-07T09:12:54;2.30;99.90
15133;DHT22;7667;51.232;17.110;2022-12-07T09:15:22;2.30;99.90
15133;DHT22;7667;51.232;17.110;2022-12-07T09:17:49;2.30;99.90
15133;DHT22;7667;51.232;17.110;2022-12-07T09:20:17;2.30;99.90
15133;DHT22;7667;51.232;17.110;2022-12-07T09:22:51;2.40;99.90
15133;DHT22;7667;51.232;17.110;2022-12-07T09:25:19;2.40;99.90
15133;DHT22;7667;51.232;17.110;2022-12-07T09:27:47;2.50;99.90
15133;DHT22;7667;51.232;17.110;2022-12-07T09:30:15;2.60;99.90
15133;DHT22;7667;51.232;17.110;2022-12-07T09:32:42;2.60;99.90
15133;DHT22;7667;51.232;17.110;2022-12-07T09:35:10;2.60;99.90
15133;DHT22;7667;51.232;17.110;2022-12-07T09:37:37;2.70;99.90
15133;DHT22;7667;51.232;17.110;2022-12-07T09:40:05;2.60;99.90
15133;DHT22;7667;51.232;17.110;2022-12-07T09:42:39;2.60;99.90
15133;DHT22;7667;51.232;17.110;2022-12-07T09:45:17;2.60;99.90
15133;DHT22;7667;51.232;17.110;2022-12-07T09:47:47;2.60;99.90
15133;DHT22;7667;51.232;17.110;2022-12-07T09:50:24;2.50;99.90
15133;DHT22;7667;51.232;17.110;2022-12-07T09:53:04;2.60;99.90
15133;DHT22;7667;51.232;17.110;2022-12-07T09:55:36;2.60;99.90
15133;DHT22;7667;51.232;17.110;2022-12-07T09:58:05;2.60;99.90
15133;DHT22;7667;51.232;17.110;2022-12-07T10:00:32;2.60;99.90
15133;DHT22;7667;51.232;17.110;2022-12-07T10:03:02;2.70;99.90
15133;DHT22;7667;51.232;17.110;2022-12-07T10:05:46;2.70;99.90
15133;DHT22;7667;51.232;17.110;2022-12-07T10:08:15;2.80;99.90
15133;DHT22;7667;51.232;17.110;2022-12-07T10:10:50;2.80;99.90
15133;DHT22;7667;51.232;17.110;2022-12-07T10:13:43;2.70;99.90
15133;DHT22;7667;51.232;17.110;2022-12-07T10:18:52;2.70;99.90
15133;DHT22;7667;51.232;17.110;2022-12-07T10:21:22;2.70;99.90
15133;DHT22;7667;51.232;17.110;2022-12-07T10:29:15;2.60;99.90
15133;DHT22;7667;51.232;17.110;2022-12-07T10:31:45;2.60;99.90
15133;DHT22;7667;51.232;17.110;2022-12-07T10:34:34;2.60;99.90
15133;DHT22;7667;51.232;17.110;2022-12-07T10:39:53;2.50;99.90
15133;DHT22;7667;51.232;17.110;2022-12-07T10:45:14;2.60;99.90
15133;DHT22;7667;51.232;17.110;2022-12-07T10:48:12;2.50;99.90
15133;DHT22;7667;51.232;17.110;2022-12-07T11:02:23;2.20;99.90
15133;DHT22;7667;51.232;17.110;2022-12-07T11:13:47;2.10;99.90
15133;DHT22;7667;51.232;17.110;2022-12-07T11:28:14;2.30;99.90
15133;DHT22;7667;51.232;17.110;2022-12-07T11:33:47;2.40;99.90
15133;DHT22;7667;51.232;17.110;2022-12-07T11:39:33;2.50;99.90
15133;DHT22;7667;51.232;17.110;2022-12-07T11:42:28;2.60;99.90
15133;DHT22;7667;51.232;17.110;2022-12-07T11:45:31;2.70;99.90
15133;DHT22;7667;51.232;17.110;2022-12-07T11:55:54;2.80;99.90
15133;DHT22;7667;51.232;17.110;2022-12-07T12:06:44;2.70;99.90
15133;DHT22;7667;51.232;17.110;2022-12-07T12:18:22;2.80;99.90
15133;DHT22;7667;51.232;17.110;2022-12-07T12:21:10;2.80;99.90
15133;DHT22;7667;51.232;17.110;2022-12-07T12:24:11;2.80;99.90
15133;DHT22;7667;51.232;17.110;2022-12-07T12:26:50;2.90;99.90
15133;DHT22;7667;51.232;17.110;2022-12-07T12:29:26;2.90;99.90
15133;DHT22;7667;51.232;17.110;2022-12-07T12:32:15;2.90;99.90
15133;DHT22;7667;51.232;17.110;2022-12-07T12:42:51;2.90;99.90
15133;DHT22;7667;51.232;17.110;2022-12-07T12:45:32;2.90;99.90
15133;DHT22;7667;51.232;17.110;2022-12-07T12:48:01;2.90;99.90
15133;DHT22;7667;51.232;17.110;2022-12-07T12:50:32;3.00;99.90
15133;DHT22;7667;51.232;17.110;2022-12-07T12:53:24;3.00;99.90
15133;DHT22;7667;51.232;17.110;2022-12-07T12:58:42;3.10;99.90
15133;DHT22;7667;51.232;17.110;2022-12-07T13:01:42;3.20;99.90
15133;DHT22;7667;51.232;17.110;2022-12-07T13:04:31;3.10;99.90
15133;DHT22;7667;51.232;17.110;2022-12-07T13:07:11;3.00;99.90
15133;DHT22;7667;51.232;17.110;2022-12-07T13:09:43;3.00;99.90
15133;DHT22;7667;51.232;17.110;2022-12-07T13:12:16;3.00;99.90
15133;DHT22;7667;51.232;17.110;2022-12-07T13:14:59;3.00;99.90
15133;DHT22;7667;51.232;17.110;2022-12-07T13:20:05;3.10;99.90
15133;DHT22;7667;51.232;17.110;2022-12-07T13:22:46;3.00;99.90
15133;DHT22;7667;51.232;17.110;2022-12-07T13:25:29;3.00;99.90
15133;DHT22;7667;51.232;17.110;2022-12-07T13:28:18;3.00;99.90
15133;DHT22;7667;51.232;17.110;2022-12-07T13:33:27;2.80;99.90
15133;DHT22;7667;51.232;17.110;2022-12-07T13:35:57;2.70;99.90
15133;DHT22;7667;51.232;17.110;2022-12-07T13:38:33;2.60;99.90
15133;DHT22;7667;51.232;17.110;2022-12-07T13:41:14;2.60;99.90
15133;DHT22;7667;51.232;17.110;2022-12-07T13:43:55;2.50;99.90
15133;DHT22;7667;51.232;17.110;2022-12-07T13:49:36;2.50;99.90
15133;DHT22;7667;51.232;17.110;2022-12-07T13:54:56;2.40;99.90
15133;DHT22;7667;51.232;17.110;2022-12-07T13:57:26;2.50;99.90
15133;DHT22;7667;51.232;17.110;2022-12-07T13:59:56;2.50;99.90
15133;DHT22;7667;51.232;17.110;2022-12-07T14:02:33;2.60;99.90
15133;DHT22;7667;51.232;17.110;2022-12-07T14:05:23;2.50;99.90
15133;DHT22;7667;51.232;17.110;2022-12-07T14:10:34;2.50;99.90
15133;DHT22;7667;51.232;17.110;2022-12-07T14:16:18;2.40;99.90
15133;DHT22;7667;51.232;17.110;2022-12-07T14:18:52;2.40;99.90
15133;DHT22;7667;51.232;17.110;2022-12-07T14:21:23;2.40;99.90
15133;DHT22;7667;51.232;17.110;2022-12-07T14:26:49;2.50;99.90
15133;DHT22;7667;51.232;17.110;2022-12-07T14:35:12;2.40;99.90
15133;DHT22;7667;51.232;17.110;2022-12-07T14:37:42;2.40;99.90
15133;DHT22;7667;51.232;17.110;2022-12-07T14:40:17;2.40;99.90
15133;DHT22;7667;51.232;17.110;2022-12-07T14:42:52;2.50;99.90
15133;DHT22;7667;51.232;17.110;2022-12-07T14:45:23;2.50;99.90
15133;DHT22;7667;51.232;17.110;2022-12-07T14:47:51;2.50;99.90
15133;DHT22;7667;51.232;17.110;2022-12-07T14:50:41;2.50;99.90
15133;DHT22;7667;51.232;17.110;2022-12-07T14:53:39;2.50;99.90
15133;DHT22;7667;51.232;17.110;2022-12-07T14:56:15;2.50;99.90
15133;DHT22;7667;51.232;17.110;2022-12-07T14:58:43;2.40;99.90
15133;DHT22;7667;51.232;17.110;2022-12-07T15:01:11;2.50;99.90
15133;DHT22;7667;51.232;17.110;2022-12-07T15:03:38;2.50;99.90
15133;DHT22;7667;51.232;17.110;2022-12-07T15:06:06;2.60;99.90
15133;DHT22;7667;51.232;17.110;2022-12-07T15:08:34;2.50;99.90
15133;DHT22;7667;51.232;17.110;2022-12-07T15:11:02;2.50;99.90
15133;DHT22;7667;51.232;17.110;2022-12-07T15:13:29;2.50;99.90
15133;DHT22;7667;51.232;17.110;2022-12-07T15:16:19;2.50;99.90
15133;DHT22;7667;51.232;17.110;2022-12-07T15:18:48;2.50;99.90
15133;DHT22;7667;51.232;17.110;2022-12-07T15:21:36;2.50;99.90
15133;DHT22;7667;51.232;17.110;2022-12-07T15:24:03;2.40;99.90
15133;DHT22;7667;51.232;17.110;2022-12-07T15:26:31;2.40;99.90
15133;DHT22;7667;51.232;17.110;2022-12-07T15:28:59;2.40;99.90
15133;DHT22;7667;51.232;17.110;2022-12-07T15:31:26;2.30;99.90
15133;DHT22;7667;51.232;17.110;2022-12-07T15:34:14;2.40;99.90
15133;DHT22;7667;51.232;17.110;2022-12-07T15:36:41;2.30;99.90
15133;DHT22;7667;51.232;17.110;2022-12-07T15:39:09;2.30;99.90
15133;DHT22;7667;51.232;17.110;2022-12-07T15:41:41;2.30;99.90
15133;DHT22;7667;51.232;17.110;2022-12-07T15:44:12;2.30;99.90
15133;DHT22;7667;51.232;17.110;2022-12-07T15:46:59;2.30;99.90
15133;DHT22;7667;51.232;17.110;2022-12-07T15:49:27;2.30;99.90
15133;DHT22;7667;51.232;17.110;2022-12-07T15:51:55;2.20;99.90
15133;DHT22;7667;51.232;17.110;2022-12-07T15:54:27;2.10;99.90
15133;DHT22;7667;51.232;17.110;2022-12-07T15:56:56;2.00;99.90
15133;DHT22;7667;51.232;17.110;2022-12-07T15:59:25;2.10;99.90
15133;DHT22;7667;51.232;17.110;2022-12-07T16:01:54;2.10;99.90
15133;DHT22;7667;51.232;17.110;2022-12-07T16:04:22;2.00;99.90
15133;DHT22;7667;51.232;17.110;2022-12-07T16:06:50;2.00;99.90
15133;DHT22;7667;51.232;17.110;2022-12-07T16:09:18;2.00;99.90
15133;DHT22;7667;51.232;17.110;2022-12-07T16:11:46;1.90;99.90
15133;DHT22;7667;51.232;17.110;2022-12-07T16:14:13;1.90;99.90
15133;DHT22;7667;51.232;17.110;2022-12-07T16:16:41;1.80;99.90
15133;DHT22;7667;51.232;17.110;2022-12-07T16:19:09;1.80;99.90
15133;DHT22;7667;51.232;17.110;2022-12-07T16:21:38;1.80;99.90
15133;DHT22;7667;51.232;17.110;2022-12-07T16:24:06;1.70;99.90
15133;DHT22;7667;51.232;17.110;2022-12-07T16:26:34;1.60;99.90
15133;DHT22;7667;51.232;17.110;2022-12-07T16:29:02;1.60;99.90
15133;DHT22;7667;51.232;17.110;2022-12-07T16:31:30;1.50;99.90
15133;DHT22;7667;51.232;17.110;2022-12-07T16:33:58;1.50;99.90
15133;DHT22;7667;51.232;17.110;2022-12-07T16:36:26;1.50;99.90
15133;DHT22;7667;51.232;17.110;2022-12-07T16:39:14;1.50;99.90
15133;DHT22;7667;51.232;17.110;2022-12-07T16:41:42;1.50;99.90
15133;DHT22;7667;51.232;17.110;2022-12-07T16:44:11;1.50;99.90
15133;DHT22;7667;51.232;17.110;2022-12-07T16:46:41;1.40;99.90
15133;DHT22;7667;51.232;17.110;2022-12-07T16:49:13;1.30;99.90
15133;DHT22;7667;51.232;17.110;2022-12-07T16:51:42;1.30;99.90
15133;DHT22;7667;51.232;17.110;2022-12-07T16:54:11;1.20;99.90
15133;DHT22;7667;51.232;17.110;2022-12-07T16:56:39;1.20;99.90
15133;DHT22;7667;51.232;17.110;2022-12-07T16:59:08;1.20;99.90
15133;DHT22;7667;51.232;17.110;2022-12-07T17:01:35;1.20;99.90
15133;DHT22;7667;51.232;17.110;2022-12-07T17:04:03;1.20;99.90
15133;DHT22;7667;51.232;17.110;2022-12-07T17:06:31;1.10;99.90
15133;DHT22;7667;51.232;17.110;2022-12-07T17:08:59;1.10;99.90
15133;DHT22;7667;51.232;17.110;2022-12-07T17:11:29;1.10;99.90
15133;DHT22;7667;51.232;17.110;2022-12-07T17:13:59;1.10;99.90
15133;DHT22;7667;51.232;17.110;2022-12-07T17:16:46;1.10;99.90
15133;DHT22;7667;51.232;17.110;2022-12-07T17:19:15;1.00;99.90
15133;DHT22;7667;51.232;17.110;2022-12-07T17:21:44;1.00;99.90
15133;DHT22;7667;51.232;17.110;2022-12-07T17:24:14;1.00;99.90
15133;DHT22;7667;51.232;17.110;2022-12-07T17:26:44;1.00;99.90
15133;DHT22;7667;51.232;17.110;2022-12-07T17:29:13;1.00;99.90
15133;DHT22;7667;51.232;17.110;2022-12-07T17:31:43;1.00;99.90
15133;DHT22;7667;51.232;17.110;2022-12-07T17:34:18;1.00;99.90
15133;DHT22;7667;51.232;17.110;2022-12-07T17:36:46;1.10;99.90
15133;DHT22;7667;51.232;17.110;2022-12-07T17:39:18;1.00;99.90
15133;DHT22;7667;51.232;17.110;2022-12-07T17:41:45;0.90;99.90
15133;DHT22;7667;51.232;17.110;2022-12-07T17:44:32;0.90;99.90
15133;DHT22;7667;51.232;17.110;2022-12-07T17:46:59;0.80;99.90
15133;DHT22;7667;51.232;17.110;2022-12-07T17:49:29;0.70;99.90
15133;DHT22;7667;51.232;17.110;2022-12-07T17:51:57;0.70;99.90
15133;DHT22;7667;51.232;17.110;2022-12-07T17:54:43;0.70;99.90
15133;DHT22;7667;51.232;17.110;2022-12-07T17:57:10;0.60;99.90
15133;DHT22;7667;51.232;17.110;2022-12-07T17:59:38;0.60;99.90
15133;DHT22;7667;51.232;17.110;2022-12-07T18:02:05;0.60;99.90
15133;DHT22;7667;51.232;17.110;2022-12-07T18:04:34;0.60;99.90
15133;DHT22;7667;51.232;17.110;2022-12-07T18:07:02;0.50;99.90
15133;DHT22;7667;51.232;17.110;2022-12-07T18:09:33;0.50;99.90
15133;DHT22;7667;51.232;17.110;2022-12-07T18:12:01;0.50;99.90
15133;DHT22;7667;51.232;17.110;2022-12-07T18:14:29;0.40;99.90
15133;DHT22;7667;51.232;17.110;2022-12-07T18:16:56;0.30;99.90
15133;DHT22;7667;51.232;17.110;2022-12-07T18:19:24;0.40;99.90
15133;DHT22;7667;51.232;17.110;2022-12-07T18:21:51;0.30;99.90
15133;DHT22;7667;51.232;17.110;2022-12-07T18:24:19;0.20;99.90
15133;DHT22;7667;51.232;17.110;2022-12-07T18:26:46;0.10;99.90
15133;DHT22;7667;51.232;17.110;2022-12-07T18:29:16;0.10;99.90
15133;DHT22;7667;51.232;17.110;2022-12-07T18:31:44;0.00;99.90
15133;DHT22;7667;51.232;17.110;2022-12-07T18:34:15;0.00;99.90
15133;DHT22;7667;51.232;17.110;2022-12-07T18:36:45;-0.10;99.90
15133;DHT22;7667;51.232;17.110;2022-12-07T18:39:14;-0.10;99.90
15133;DHT22;7667;51.232;17.110;2022-12-07T18:41:42;-0.10;99.90